Time;durP1;ratioP1;P1;durP2;ratioP2;P2;SDS_P1;SDS_P2;PMS_P1;PMS_P2;Temp;Humidity;BMP_temperature;BMP_pressure;BME280_temperature;BME280_humidity;BME280_pressure;Samples;Min_cycle;Max_cycle;Signal;HPM_P1;HPM_P2
2024/01/29 00:00:32;;;;;;;27.10;12.17;;;;;;;;;;5043915;28;20678;-52
2024/01/29 00:02:58;;;;;;;25.27;11.63;;;;;;;;;;5035760;28;20212;-50
2024/01/29 00:05:24;;;;;;;23.97;10.80;;;;;;;;;;5034694;28;20195;-50
2024/01/29 00:07:50;;;;;;;29.67;12.23;;;;;;;;;;5012459;28;20900;-51
2024/01/29 00:10:16;;;;;;;25.20;11.20;;;;;;;;;;5020561;28;20614;-49
2024/01/29 00:12:42;;;;;;;28.70;12.73;;;;;;;;;;5051002;28;20189;-49
2024/01/29 00:15:08;;;;;;;34.90;13.77;;;;;;;;;;5029188;28;20268;-49
2024/01/29 00:17:34;;;;;;;33.03;11.93;;;;;;;;;;5024709;28;20195;-50
2024/01/29 00:20:00;;;;;;;34.83;12.13;;;;;;;;;;5030196;28;20427;-49
2024/01/29 00:22:26;;;;;;;25.83;12.37;;;;;;;;;;5048423;28;20273;-52
2024/01/29 00:24:52;;;;;;;32.40;13.43;;;;;;;;;;5044118;28;20257;-49
2024/01/29 00:27:18;;;;;;;25.60;11.53;;;;;;;;;;5042920;28;20472;-47
2024/01/29 00:29:44;;;;;;;27.63;11.53;;;;;;;;;;5035078;28;20203;-47
2024/01/29 00:32:10;;;;;;;32.73;13.40;;;;;;;;;;5021599;28;20427;-48
2024/01/29 00:34:36;;;;;;;27.20;11.53;;;;;;;;;;5030029;28;20266;-47
2024/01/29 00:37:03;;;;;;;24.93;11.77;;;;;;;;;;5039393;28;20195;-48
2024/01/29 00:39:30;;;;;;;24.63;10.97;;;;;;;;;;5047748;28;20202;-49
2024/01/29 00:41:55;;;;;;;28.03;11.13;;;;;;;;;;5044598;28;20429;-47
2024/01/29 00:44:21;;;;;;;25.57;12.03;;;;;;;;;;5051531;28;20406;-47
2024/01/29 00:46:47;;;;;;;24.67;11.03;;;;;;;;;;5026064;28;20253;-50
2024/01/29 00:49:13;;;;;;;23.53;10.83;;;;;;;;;;5051214;28;20560;-47
2024/01/29 00:51:40;;;;;;;31.70;12.43;;;;;;;;;;5046466;28;20179;-48
2024/01/29 00:54:06;;;;;;;26.77;11.17;;;;;;;;;;5019655;28;20181;-47
2024/01/29 00:56:32;;;;;;;29.10;11.97;;;;;;;;;;5036919;28;20425;-50
2024/01/29 00:58:58;;;;;;;25.10;11.40;;;;;;;;;;5039687;28;20207;-47
2024/01/29 01:01:24;;;;;;;27.77;12.23;;;;;;;;;;5031123;28;20667;-48
2024/01/29 01:03:50;;;;;;;29.97;12.27;;;;;;;;;;5042904;28;20215;-47
2024/01/29 01:06:16;;;;;;;31.37;12.23;;;;;;;;;;5027556;28;20196;-48
2024/01/29 01:08:42;;;;;;;25.60;10.90;;;;;;;;;;5027413;28;20291;-50
2024/01/29 01:11:08;;;;;;;25.57;11.53;;;;;;;;;;5039984;28;20183;-49
2024/01/29 01:13:34;;;;;;;32.27;11.97;;;;;;;;;;5034275;28;20432;-48
2024/01/29 01:16:00;;;;;;;30.93;11.57;;;;;;;;;;5036949;28;20190;-48
2024/01/29 01:18:26;;;;;;;26.57;11.67;;;;;;;;;;5046646;28;20214;-49
2024/01/29 01:20:51;;;;;;;29.03;11.67;;;;;;;;;;5031486;28;20449;-49
2024/01/29 01:23:17;;;;;;;24.27;11.27;;;;;;;;;;5038350;28;20190;-49
2024/01/29 01:25:43;;;;;;;23.20;10.40;;;;;;;;;;5019669;28;20200;-51
2024/01/29 01:28:10;;;;;;;23.03;10.70;;;;;;;;;;5031721;28;20215;-48
2024/01/29 01:30:35;;;;;;;25.87;10.40;;;;;;;;;;5048983;28;20659;-50
2024/01/29 01:33:01;;;;;;;21.17;9.93;;;;;;;;;;5038874;28;20415;-48
2024/01/29 01:35:27;;;;;;;26.20;11.37;;;;;;;;;;5029680;28;20718;-47
2024/01/29 01:37:53;;;;;;;23.27;10.80;;;;;;;;;;5027006;28;20640;-48
2024/01/29 01:40:19;;;;;;;27.47;11.00;;;;;;;;;;5034815;28;20187;-50
2024/01/29 01:42:47;;;;;;;24.30;10.03;;;;;;;;;;5027034;28;20514;-47
2024/01/29 01:45:13;;;;;;;24.30;10.53;;;;;;;;;;5016513;28;20286;-51
2024/01/29 01:47:39;;;;;;;26.10;11.00;;;;;;;;;;5019178;28;20549;-47
2024/01/29 01:50:08;;;;;;;25.77;10.70;;;;;;;;;;5038678;28;20186;-48
2024/01/29 01:52:34;;;;;;;25.90;11.47;;;;;;;;;;5022386;28;20529;-48
2024/01/29 01:55:00;;;;;;;26.47;11.50;;;;;;;;;;5031730;28;20591;-48
2024/01/29 01:57:26;;;;;;;27.50;11.23;;;;;;;;;;5021520;28;20422;-50
2024/01/29 01:59:52;;;;;;;28.47;11.63;;;;;;;;;;5038322;28;20831;-49
2024/01/29 02:02:18;;;;;;;25.73;10.50;;;;;;;;;;5045650;28;20475;-50
2024/01/29 02:04:44;;;;;;;22.33;10.83;;;;;;;;;;5022336;28;20191;-52
2024/01/29 02:07:10;;;;;;;21.57;10.43;;;;;;;;;;5031087;28;20423;-51
2024/01/29 02:09:36;;;;;;;25.63;11.37;;;;;;;;;;5021711;28;20207;-47
2024/01/29 02:12:02;;;;;;;24.53;10.27;;;;;;;;;;5033543;28;20202;-47
2024/01/29 02:14:28;;;;;;;26.13;11.20;;;;;;;;;;5032354;28;20413;-49
2024/01/29 02:16:54;;;;;;;26.47;11.30;;;;;;;;;;5011488;28;20981;-47
2024/01/29 02:19:20;;;;;;;29.87;12.30;;;;;;;;;;5030070;28;20215;-48
2024/01/29 02:21:46;;;;;;;26.73;11.40;;;;;;;;;;5018329;28;20180;-48
2024/01/29 02:24:12;;;;;;;27.63;10.63;;;;;;;;;;5039760;28;20425;-49
2024/01/29 02:26:38;;;;;;;25.67;11.00;;;;;;;;;;5040737;28;20195;-48
2024/01/29 02:29:04;;;;;;;24.50;10.77;;;;;;;;;;5049771;28;20473;-47
2024/01/29 02:31:30;;;;;;;29.33;12.30;;;;;;;;;;5022269;28;20426;-49
2024/01/29 02:33:56;;;;;;;27.37;11.63;;;;;;;;;;5034015;28;20194;-49
2024/01/29 02:36:22;;;;;;;28.13;10.00;;;;;;;;;;5024729;28;20222;-50
2024/01/29 02:38:48;;;;;;;25.73;10.70;;;;;;;;;;5037534;28;20207;-47
2024/01/29 02:41:14;;;;;;;29.83;10.90;;;;;;;;;;4996997;28;20195;-51
2024/01/29 02:43:41;;;;;;;26.73;11.23;;;;;;;;;;5026651;28;20206;-49
2024/01/29 02:46:07;;;;;;;21.80;10.30;;;;;;;;;;5014800;28;20247;-50
2024/01/29 02:48:33;;;;;;;23.43;11.00;;;;;;;;;;5027087;28;20479;-49
2024/01/29 02:50:59;;;;;;;31.80;11.67;;;;;;;;;;5016604;28;20192;-49
2024/01/29 02:53:25;;;;;;;24.00;10.53;;;;;;;;;;5026116;28;20212;-52
2024/01/29 02:55:51;;;;;;;26.03;11.30;;;;;;;;;;5043050;28;20183;-50
2024/01/29 02:58:17;;;;;;;26.17;11.57;;;;;;;;;;5046057;28;20781;-51
2024/01/29 03:00:43;;;;;;;32.80;12.33;;;;;;;;;;5044677;28;20417;-52
2024/01/29 03:03:11;;;;;;;27.03;11.83;;;;;;;;;;5035154;28;20971;-48
2024/01/29 03:05:37;;;;;;;26.80;12.33;;;;;;;;;;5050941;28;20212;-49
2024/01/29 03:08:03;;;;;;;24.37;10.37;;;;;;;;;;5030008;28;20473;-47
2024/01/29 03:10:29;;;;;;;27.10;11.73;;;;;;;;;;5018769;28;20193;-48
2024/01/29 03:12:56;;;;;;;31.53;11.27;;;;;;;;;;5021612;28;20850;-47
2024/01/29 03:15:22;;;;;;;26.23;10.70;;;;;;;;;;5028698;28;20793;-50
2024/01/29 03:17:48;;;;;;;26.53;11.00;;;;;;;;;;5052723;28;20448;-49
2024/01/29 03:20:14;;;;;;;21.47;10.20;;;;;;;;;;5053071;28;20198;-47
2024/01/29 03:22:40;;;;;;;26.23;11.33;;;;;;;;;;5020003;28;20279;-52
2024/01/29 03:25:06;;;;;;;25.07;10.67;;;;;;;;;;5033030;28;20922;-51
2024/01/29 03:27:32;;;;;;;24.70;11.20;;;;;;;;;;5027419;28;20211;-51
2024/01/29 03:29:58;;;;;;;26.43;11.03;;;;;;;;;;5038877;28;20425;-55
2024/01/29 03:32:24;;;;;;;23.53;10.83;;;;;;;;;;5036139;28;20183;-53
2024/01/29 03:34:50;;;;;;;28.83;11.47;;;;;;;;;;5016587;28;20545;-52
2024/01/29 03:37:17;;;;;;;25.83;11.07;;;;;;;;;;5047579;28;20225;-53
2024/01/29 03:39:42;;;;;;;25.47;11.00;;;;;;;;;;5025243;28;20434;-55
2024/01/29 03:42:08;;;;;;;21.90;10.60;;;;;;;;;;5024260;28;20440;-54
2024/01/29 03:44:34;;;;;;;29.33;11.10;;;;;;;;;;5025574;28;20192;-50
2024/01/29 03:47:00;;;;;;;31.87;11.90;;;;;;;;;;5035265;28;20228;-51
2024/01/29 03:49:26;;;;;;;25.80;10.67;;;;;;;;;;5035625;28;20282;-50
2024/01/29 03:51:52;;;;;;;27.07;10.90;;;;;;;;;;5044777;28;20185;-49
2024/01/29 03:54:18;;;;;;;24.13;10.17;;;;;;;;;;5035487;28;20206;-49
2024/01/29 03:56:44;;;;;;;24.23;10.70;;;;;;;;;;5034902;28;20226;-54
2024/01/29 03:59:11;;;;;;;26.40;11.10;;;;;;;;;;5052172;28;20265;-51
2024/01/29 04:01:37;;;;;;;29.23;11.13;;;;;;;;;;5019077;28;20347;-52
2024/01/29 04:04:03;;;;;;;23.93;10.57;;;;;;;;;;5052069;28;20501;-55
2024/01/29 04:06:29;;;;;;;24.37;11.10;;;;;;;;;;5050666;28;20913;-50
2024/01/29 04:08:55;;;;;;;23.10;10.17;;;;;;;;;;5052092;28;20987;-52
2024/01/29 04:11:21;;;;;;;25.07;10.83;;;;;;;;;;5044292;28;20434;-51
2024/01/29 04:13:47;;;;;;;24.77;10.37;;;;;;;;;;5035188;28;20175;-53
2024/01/29 04:16:13;;;;;;;24.10;11.27;;;;;;;;;;5050998;28;20192;-50
2024/01/29 04:18:39;;;;;;;26.27;10.27;;;;;;;;;;5049768;28;20754;-52
2024/01/29 04:21:06;;;;;;;23.90;10.23;;;;;;;;;;5034818;28;20427;-54
2024/01/29 04:23:35;;;;;;;22.53;10.20;;;;;;;;;;5037554;28;20913;-51
2024/01/29 04:26:01;;;;;;;22.53;9.93;;;;;;;;;;5034475;28;20431;-52
2024/01/29 04:28:27;;;;;;;25.87;10.03;;;;;;;;;;5036362;28;20468;-54
2024/01/29 04:30:53;;;;;;;27.50;11.37;;;;;;;;;;5023751;28;20414;-52
2024/01/29 04:33:19;;;;;;;20.03;9.53;;;;;;;;;;5039358;28;20426;-51
2024/01/29 04:35:45;;;;;;;20.47;9.40;;;;;;;;;;5045498;28;20436;-50
2024/01/29 04:38:11;;;;;;;26.27;9.63;;;;;;;;;;5019992;28;20213;-52
2024/01/29 04:40:40;;;;;;;24.67;9.87;;;;;;;;;;5028400;28;20658;-54
2024/01/29 04:43:06;;;;;;;22.87;9.70;;;;;;;;;;5037050;28;20199;-54
2024/01/29 04:45:32;;;;;;;20.60;9.60;;;;;;;;;;5033258;28;20804;-52
2024/01/29 04:47:58;;;;;;;25.33;10.57;;;;;;;;;;5035698;28;20280;-51
2024/01/29 04:50:24;;;;;;;25.43;9.73;;;;;;;;;;5043107;28;20187;-50
2024/01/29 04:52:50;;;;;;;20.20;9.63;;;;;;;;;;5047672;28;20191;-52
2024/01/29 04:55:16;;;;;;;22.37;10.10;;;;;;;;;;5046464;28;20187;-53
2024/01/29 04:57:42;;;;;;;19.13;9.27;;;;;;;;;;5031809;28;20201;-51
2024/01/29 05:00:09;;;;;;;24.90;10.40;;;;;;;;;;5039406;28;20715;-51
2024/01/29 05:02:35;;;;;;;23.60;9.27;;;;;;;;;;5029980;28;20549;-52
2024/01/29 05:05:01;;;;;;;36.00;12.10;;;;;;;;;;5032322;28;20418;-51
2024/01/29 05:07:27;;;;;;;25.40;11.47;;;;;;;;;;5022508;28;20884;-49
2024/01/29 05:09:54;;;;;;;29.33;10.97;;;;;;;;;;5042727;28;20453;-49
2024/01/29 05:12:20;;;;;;;25.17;12.00;;;;;;;;;;5050995;28;20210;-54
2024/01/29 05:14:46;;;;;;;22.63;10.40;;;;;;;;;;5047854;28;20415;-50
2024/01/29 05:17:12;;;;;;;23.10;10.37;;;;;;;;;;5036146;28;20424;-50
2024/01/29 05:19:40;;;;;;;25.93;10.53;;;;;;;;;;5041897;28;20429;-53
2024/01/29 05:22:06;;;;;;;25.77;10.30;;;;;;;;;;5050725;28;20421;-52
2024/01/29 05:24:32;;;;;;;25.87;10.67;;;;;;;;;;5016794;28;20418;-53
2024/01/29 05:26:58;;;;;;;21.23;9.47;;;;;;;;;;5026291;28;20506;-50
2024/01/29 05:29:24;;;;;;;18.07;8.70;;;;;;;;;;5050439;28;20214;-52
2024/01/29 05:31:50;;;;;;;22.80;8.87;;;;;;;;;;5033938;28;20418;-51
2024/01/29 05:34:16;;;;;;;20.13;9.57;;;;;;;;;;5027080;28;20643;-52
2024/01/29 05:36:42;;;;;;;26.83;10.40;;;;;;;;;;5027696;28;20445;-53
2024/01/29 05:39:08;;;;;;;23.00;8.93;;;;;;;;;;5032787;28;20431;-53
2024/01/29 05:41:34;;;;;;;21.60;9.90;;;;;;;;;;5046643;28;20198;-54
2024/01/29 05:44:00;;;;;;;19.63;9.43;;;;;;;;;;5026851;28;20470;-50
2024/01/29 05:46:26;;;;;;;24.33;9.83;;;;;;;;;;5038336;28;20234;-51
2024/01/29 05:48:52;;;;;;;20.60;9.70;;;;;;;;;;5014399;28;20219;-50
2024/01/29 05:51:18;;;;;;;25.33;10.40;;;;;;;;;;5045755;28;20190;-51
2024/01/29 05:53:44;;;;;;;22.73;10.63;;;;;;;;;;5028687;28;20231;-49
2024/01/29 05:56:10;;;;;;;22.57;10.77;;;;;;;;;;5021796;28;20237;-51
2024/01/29 05:58:36;;;;;;;24.07;10.00;;;;;;;;;;5033520;28;20208;-53
2024/01/29 06:01:03;;;;;;;26.80;10.23;;;;;;;;;;5040175;28;20192;-51
2024/01/29 06:03:29;;;;;;;21.43;9.30;;;;;;;;;;5018210;28;20478;-52
2024/01/29 06:05:55;;;;;;;22.93;9.47;;;;;;;;;;5025947;28;20427;-53
2024/01/29 06:08:21;;;;;;;25.60;10.63;;;;;;;;;;5026546;28;20475;-51
2024/01/29 06:10:47;;;;;;;23.43;9.60;;;;;;;;;;5026342;28;20426;-51
2024/01/29 06:13:13;;;;;;;23.80;9.87;;;;;;;;;;5016577;28;20501;-53
2024/01/29 06:15:39;;;;;;;19.73;9.37;;;;;;;;;;5030953;28;20188;-50
2024/01/29 06:18:05;;;;;;;23.27;9.33;;;;;;;;;;5038986;28;20212;-51
2024/01/29 06:20:31;;;;;;;24.90;12.67;;;;;;;;;;5026239;28;20190;-52
2024/01/29 06:22:57;;;;;;;23.13;11.73;;;;;;;;;;5022380;28;20426;-49
2024/01/29 06:25:23;;;;;;;26.13;12.17;;;;;;;;;;5044867;28;20273;-54
2024/01/29 06:27:49;;;;;;;25.23;10.43;;;;;;;;;;5043415;28;20296;-49
2024/01/29 06:30:15;;;;;;;25.50;10.43;;;;;;;;;;5024408;28;20506;-53
2024/01/29 06:32:41;;;;;;;22.03;10.00;;;;;;;;;;5040384;28;20272;-52
2024/01/29 06:35:08;;;;;;;23.57;9.47;;;;;;;;;;4992327;28;20853;-50
2024/01/29 06:37:34;;;;;;;21.17;9.00;;;;;;;;;;5027304;28;20433;-52
2024/01/29 06:40:00;;;;;;;20.70;9.93;;;;;;;;;;5032053;28;20605;-47
2024/01/29 06:42:26;;;;;;;27.60;11.00;;;;;;;;;;5034068;28;20531;-52
2024/01/29 06:44:52;;;;;;;22.40;11.00;;;;;;;;;;5026235;28;20193;-50
2024/01/29 06:47:19;;;;;;;25.97;11.70;;;;;;;;;;5031301;28;20191;-47
2024/01/29 06:49:45;;;;;;;31.40;14.40;;;;;;;;;;5038688;28;20812;-52
2024/01/29 06:52:11;;;;;;;23.43;11.47;;;;;;;;;;5027462;28;21006;-50
2024/01/29 06:54:37;;;;;;;28.43;12.93;;;;;;;;;;5038146;28;20646;-47
2024/01/29 06:57:03;;;;;;;38.07;14.83;;;;;;;;;;5019113;28;20482;-48
2024/01/29 06:59:29;;;;;;;46.27;17.47;;;;;;;;;;5032722;28;20440;-48
2024/01/29 07:01:59;;;;;;;37.67;15.37;;;;;;;;;;5049272;28;20421;-47
2024/01/29 07:04:25;;;;;;;29.37;12.30;;;;;;;;;;5041192;28;20194;-47
2024/01/29 07:06:51;;;;;;;37.20;15.17;;;;;;;;;;5040282;28;20418;-51
2024/01/29 07:09:17;;;;;;;35.43;15.23;;;;;;;;;;5049245;28;20295;-47
2024/01/29 07:11:43;;;;;;;27.30;11.10;;;;;;;;;;5014301;28;20508;-47
2024/01/29 07:14:09;;;;;;;28.33;10.43;;;;;;;;;;5028958;28;20191;-47
2024/01/29 07:16:35;;;;;;;53.00;18.30;;;;;;;;;;5028284;28;20419;-52
2024/01/29 07:19:01;;;;;;;53.53;20.10;;;;;;;;;;5015845;28;20354;-51
2024/01/29 07:21:27;;;;;;;43.60;16.33;;;;;;;;;;5015030;28;20633;-47
2024/01/29 07:23:52;;;;;;;41.63;15.00;;;;;;;;;;5048024;28;20262;-48
2024/01/29 07:26:18;;;;;;;27.27;13.00;;;;;;;;;;5030453;28;20695;-47
2024/01/29 07:28:45;;;;;;;31.23;12.53;;;;;;;;;;5035151;28;20579;-51
2024/01/29 07:31:11;;;;;;;27.40;12.63;;;;;;;;;;5020123;28;20188;-48
2024/01/29 07:33:37;;;;;;;24.80;11.20;;;;;;;;;;5029465;28;20417;-47
2024/01/29 07:36:03;;;;;;;28.00;11.40;;;;;;;;;;5029767;28;20194;-49
2024/01/29 07:38:29;;;;;;;22.63;10.77;;;;;;;;;;5032744;28;20445;-52
2024/01/29 07:40:55;;;;;;;21.23;10.97;;;;;;;;;;5029128;28;20422;-48
2024/01/29 07:43:21;;;;;;;29.83;11.80;;;;;;;;;;5024518;28;20808;-48
2024/01/29 07:45:47;;;;;;;27.00;11.63;;;;;;;;;;5041421;28;20282;-51
2024/01/29 07:48:13;;;;;;;22.13;11.57;;;;;;;;;;5031747;28;20686;-48
2024/01/29 07:50:39;;;;;;;27.97;12.43;;;;;;;;;;5025185;28;20180;-48
2024/01/29 07:53:05;;;;;;;28.93;12.73;;;;;;;;;;5043483;28;20191;-51
2024/01/29 07:55:31;;;;;;;30.93;14.63;;;;;;;;;;5034080;28;20198;-51
2024/01/29 07:57:57;;;;;;;33.93;14.13;;;;;;;;;;5028482;28;20299;-51
2024/01/29 08:00:23;;;;;;;30.33;14.23;;;;;;;;;;5029012;28;20676;-50
2024/01/29 08:02:49;;;;;;;31.47;13.50;;;;;;;;;;5042660;28;20751;-51
2024/01/29 08:05:15;;;;;;;30.47;13.70;;;;;;;;;;5031694;28;20196;-49
2024/01/29 08:07:41;;;;;;;30.20;13.10;;;;;;;;;;5045081;28;20230;-50
2024/01/29 08:10:07;;;;;;;26.07;12.43;;;;;;;;;;5023198;28;20417;-50
2024/01/29 08:12:33;;;;;;;32.93;12.13;;;;;;;;;;5051813;28;20183;-50
2024/01/29 08:14:59;;;;;;;23.23;11.23;;;;;;;;;;5025811;28;20501;-51
2024/01/29 08:17:26;;;;;;;22.30;11.00;;;;;;;;;;5047136;28;20624;-47
2024/01/29 08:19:52;;;;;;;25.17;11.73;;;;;;;;;;5036097;28;20211;-47
2024/01/29 08:22:18;;;;;;;28.43;12.77;;;;;;;;;;5027639;28;20423;-50
2024/01/29 08:24:44;;;;;;;28.43;13.30;;;;;;;;;;5013178;28;20263;-52
2024/01/29 08:27:10;;;;;;;30.27;13.13;;;;;;;;;;5030489;28;20203;-49
2024/01/29 08:29:36;;;;;;;28.97;13.63;;;;;;;;;;5022259;28;20586;-49
2024/01/29 08:32:02;;;;;;;43.83;16.83;;;;;;;;;;5035751;28;20677;-49
2024/01/29 08:34:29;;;;;;;31.57;13.97;;;;;;;;;;5008379;28;20192;-49
2024/01/29 08:36:56;;;;;;;35.67;14.07;;;;;;;;;;5026916;28;20518;-51
2024/01/29 08:39:22;;;;;;;31.30;13.70;;;;;;;;;;5027489;28;20982;-47
2024/01/29 08:41:48;;;;;;;33.93;14.17;;;;;;;;;;5049014;28;20282;-48
2024/01/29 08:44:14;;;;;;;32.83;14.47;;;;;;;;;;5042366;28;20682;-51
2024/01/29 08:46:40;;;;;;;35.20;16.03;;;;;;;;;;5048258;28;20270;-52
2024/01/29 08:49:06;;;;;;;40.03;14.67;;;;;;;;;;5004269;28;20646;-53
2024/01/29 08:51:32;;;;;;;33.30;13.10;;;;;;;;;;5013938;28;20191;-48
2024/01/29 08:53:58;;;;;;;30.60;13.27;;;;;;;;;;5042653;28;20308;-53
2024/01/29 08:56:24;;;;;;;28.17;13.00;;;;;;;;;;5033445;28;20190;-50
2024/01/29 08:58:49;;;;;;;35.53;13.07;;;;;;;;;;5025493;28;20199;-52
2024/01/29 09:01:15;;;;;;;24.70;11.73;;;;;;;;;;5021134;28;20192;-50
2024/01/29 09:03:41;;;;;;;23.37;10.67;;;;;;;;;;5044966;28;20191;-54
2024/01/29 09:06:07;;;;;;;19.77;10.20;;;;;;;;;;5029616;28;20274;-50
2024/01/29 09:08:34;;;;;;;21.27;10.60;;;;;;;;;;5022038;28;20542;-51
2024/01/29 09:11:00;;;;;;;22.13;9.90;;;;;;;;;;5026142;28;20669;-52
2024/01/29 09:13:26;;;;;;;21.13;9.87;;;;;;;;;;5033692;28;20207;-55
2024/01/29 09:15:52;;;;;;;21.73;10.17;;;;;;;;;;5032933;28;20451;-54
2024/01/29 09:18:17;;;;;;;18.57;9.33;;;;;;;;;;5041546;28;20286;-51
2024/01/29 09:20:43;;;;;;;22.58;11.35;;;1.70;99.90;;;;;;5032908;28;20408;-62
2024/01/29 09:23:09;;;;;;;21.67;10.53;;;6.70;99.90;;;;;;5031142;28;20215;-64
2024/01/29 09:25:34;;;;;;;27.40;11.57;;;6.20;99.90;;;;;;5035133;28;20203;-59
2024/01/29 09:28:00;;;;;;;20.63;9.57;;;5.80;99.90;;;;;;5018321;28;20661;-61
2024/01/29 09:30:25;;;;;;;21.60;9.80;;;5.80;99.90;;;;;;5010820;28;20271;-60
2024/01/29 09:32:51;;;;;;;24.27;10.47;;;5.00;99.90;;;;;;5010674;28;20204;-59
2024/01/29 09:35:16;;;;;;;17.80;9.57;;;4.70;99.90;;;;;;5025662;28;20194;-60
2024/01/29 09:37:42;;;;;;;19.87;9.30;;;4.40;99.90;;;;;;5031722;28;20184;-61
2024/01/29 09:40:12;;;;;;;19.23;9.27;;;4.60;99.90;;;;;;5027233;28;20191;-58
2024/01/29 09:42:40;;;;;;;15.87;8.47;;;4.40;99.90;;;;;;5022219;28;20196;-61
2024/01/29 09:45:10;;;;;;;22.23;9.20;;;4.20;99.90;;;;;;5017391;28;20181;-60
2024/01/29 09:47:36;;;;;;;19.27;9.13;;;4.40;99.90;;;;;;5009040;28;20251;-61
2024/01/29 09:50:09;;;;;;;18.10;9.23;;;4.60;99.90;;;;;;5011894;28;20232;-60
2024/01/29 09:52:37;;;;;;;16.90;8.40;;;4.50;99.90;;;;;;5045184;28;20202;-60
2024/01/29 09:55:04;;;;;;;19.57;8.73;;;4.50;99.90;;;;;;5045343;28;20218;-60
2024/01/29 09:57:30;;;;;;;20.00;9.30;;;4.40;99.90;;;;;;5021268;28;20184;-63
2024/01/29 09:59:55;;;;;;;20.33;8.63;;;4.50;99.90;;;;;;5049921;28;20198;-59
2024/01/29 10:02:21;;;;;;;19.37;9.10;;;4.60;99.90;;;;;;5035406;28;20207;-58
2024/01/29 10:04:47;;;;;;;20.70;7.90;;;4.70;99.90;;;;;;5013038;28;20189;-54
2024/01/29 10:07:14;;;;;;;15.87;8.47;;;5.00;99.90;;;;;;5037045;28;20180;-58
2024/01/29 10:09:40;;;;;;;23.53;8.83;;;5.10;99.90;;;;;;5037304;28;20305;-58
2024/01/29 10:12:06;;;;;;;19.10;9.70;;;5.20;99.90;;;;;;5032695;28;20653;-56
2024/01/29 10:14:32;;;;;;;22.30;9.30;;;5.20;99.90;;;;;;5015401;28;20246;-58
2024/01/29 10:16:57;;;;;;;16.87;8.47;;;5.40;99.90;;;;;;5017084;28;20190;-57
2024/01/29 10:19:23;;;;;;;19.07;8.27;;;5.60;99.90;;;;;;5016461;28;20274;-58
2024/01/29 10:21:49;;;;;;;14.13;8.17;;;5.70;99.90;;;;;;5047848;28;20202;-55
2024/01/29 10:24:17;;;;;;;17.60;9.50;;;6.00;99.90;;;;;;5049711;28;20194;-58
2024/01/29 10:26:44;;;;;;;18.10;9.07;;;6.10;99.90;;;;;;5045422;28;20651;-58
2024/01/29 10:29:11;;;;;;;19.13;9.17;;;6.30;99.90;;;;;;5036772;28;20225;-56
2024/01/29 10:31:37;;;;;;;20.30;9.50;;;6.40;99.90;;;;;;5032440;28;20683;-58
2024/01/29 10:34:04;;;;;;;15.77;9.17;;;6.40;99.90;;;;;;5040705;28;20190;-56
2024/01/29 10:36:30;;;;;;;17.53;8.87;;;6.60;99.90;;;;;;5023583;28;20765;-59
2024/01/29 10:39:03;;;;;;;18.13;9.30;;;6.80;99.90;;;;;;5025521;28;20295;-58
2024/01/29 10:41:32;;;;;;;19.37;10.03;;;7.00;99.90;;;;;;5000632;28;20189;-58
2024/01/29 10:44:02;;;;;;;19.20;9.50;;;7.00;99.90;;;;;;5033119;28;20222;-57
2024/01/29 10:46:33;;;;;;;19.87;10.23;;;6.90;99.90;;;;;;5032635;28;20279;-58
2024/01/29 10:49:00;;;;;;;23.27;10.00;;;6.80;99.90;;;;;;5017160;28;20229;-58
2024/01/29 10:51:26;;;;;;;19.77;9.80;;;6.80;99.90;;;;;;5048049;28;20194;-54
2024/01/29 10:53:53;;;;;;;22.67;10.30;;;6.90;99.90;;;;;;5042852;28;20184;-57
2024/01/29 10:56:21;;;;;;;23.53;10.37;;;6.80;99.90;;;;;;5008791;28;20563;-58
2024/01/29 10:58:49;;;;;;;21.40;10.60;;;6.50;99.90;;;;;;5023736;28;20210;-57
2024/01/29 11:01:15;;;;;;;19.57;10.03;;;6.30;99.90;;;;;;5038198;28;20587;-58
2024/01/29 11:03:43;;;;;;;21.97;10.00;;;6.30;99.90;;;;;;5029769;28;20241;-59
2024/01/29 11:06:19;;;;;;;21.33;10.33;;;6.30;99.90;;;;;;5037618;28;20192;-58
2024/01/29 11:08:49;;;;;;;20.87;10.03;;;6.40;99.90;;;;;;5025145;28;20215;-58
2024/01/29 11:11:17;;;;;;;21.13;10.40;;;6.60;99.90;;;;;;5021631;28;20187;-55
2024/01/29 11:13:43;;;;;;;21.27;10.77;;;6.70;99.90;;;;;;5020830;28;20187;-60
2024/01/29 11:16:08;;;;;;;30.37;12.07;;;6.80;99.90;;;;;;5000047;28;20188;-59
2024/01/29 11:18:35;;;;;;;23.30;11.03;;;7.00;99.90;;;;;;5021540;28;20274;-57
2024/01/29 11:21:01;;;;;;;23.63;10.93;;;7.30;99.90;;;;;;5029225;28;20191;-59
2024/01/29 11:23:28;;;;;;;26.83;11.50;;;7.50;99.90;;;;;;5052642;28;20214;-58
2024/01/29 11:25:57;;;;;;;21.80;10.57;;;7.70;99.90;;;;;;5043472;28;20187;-58
2024/01/29 11:28:26;;;;;;;23.17;12.43;;;7.90;99.90;;;;;;5036936;28;20595;-60
2024/01/29 11:30:54;;;;;;;20.93;10.80;;;8.20;99.90;;;;;;5020073;28;20687;-54
2024/01/29 11:33:21;;;;;;;22.20;11.30;;;8.30;99.90;;;;;;5046619;28;20194;-58
2024/01/29 11:35:50;;;;;;;25.33;12.33;;;8.40;99.90;;;;;;5035876;28;20662;-54
2024/01/29 11:38:22;;;;;;;30.93;13.83;;;8.40;99.90;;;;;;5040610;28;20222;-56
2024/01/29 11:40:47;;;;;;;24.57;12.27;;;8.60;99.90;;;;;;5051841;28;20187;-55
2024/01/29 11:43:15;;;;;;;20.70;10.00;;;8.70;99.90;;;;;;5039721;28;20214;-58
2024/01/29 11:45:46;;;;;;;19.17;9.90;;;8.80;99.90;;;;;;5035126;28;20196;-58
2024/01/29 11:48:13;;;;;;;16.03;8.80;;;8.90;99.90;;;;;;5039306;28;20742;-55
2024/01/29 11:50:46;;;;;;;16.30;8.63;;;9.10;99.90;;;;;;5042884;28;20195;-57
2024/01/29 11:53:16;;;;;;;16.70;7.87;;;9.20;99.90;;;;;;5032384;28;20179;-56
2024/01/29 11:55:43;;;;;;;15.63;7.77;;;9.60;99.90;;;;;;5039828;28;20190;-57
2024/01/29 11:58:13;;;;;;;15.97;8.23;;;10.00;99.90;;;;;;5029009;28;20248;-56
2024/01/29 12:00:40;;;;;;;18.83;8.40;;;10.30;99.90;;;;;;5027158;28;20194;-57
2024/01/29 12:03:08;;;;;;;16.37;8.53;;;10.70;99.90;;;;;;5046871;28;20180;-57
2024/01/29 12:05:34;;;;;;;13.90;8.03;;;;;;;;;;5023109;28;20672;-55
2024/01/29 12:08:00;;;;;;;14.10;7.73;;;11.20;99.90;;;;;;5027414;28;20225;-54
2024/01/29 12:10:25;;;;;;;17.87;8.30;;;12.60;99.90;;;;;;5027571;28;20184;-57
2024/01/29 12:12:51;;;;;;;19.57;8.60;;;13.30;99.90;;;;;;5034482;28;20732;-56
2024/01/29 12:15:17;;;;;;;21.77;9.13;;;13.70;99.90;;;;;;5045470;28;20184;-55
2024/01/29 12:17:48;;;;;;;20.83;9.47;;;13.90;99.90;;;;;;5024011;28;20179;-54
2024/01/29 12:20:15;;;;;;;18.57;9.00;;;14.50;99.90;;;;;;5049581;28;20265;-52
2024/01/29 12:22:41;;;;;;;19.73;9.63;;;14.60;99.90;;;;;;5048931;28;20222;-55
2024/01/29 12:25:12;;;;;;;15.50;8.63;;;14.30;99.90;;;;;;5007085;28;20191;-54
2024/01/29 12:27:39;;;;;;;16.43;8.83;;;14.20;99.90;;;;;;5016936;28;20180;-61
2024/01/29 12:30:09;;;;;;;16.17;8.30;;;13.90;99.90;;;;;;5037109;28;20179;-58
2024/01/29 12:32:35;;;;;;;22.53;9.33;;;13.90;99.90;;;;;;5033743;28;20505;-61
2024/01/29 12:35:00;;;;;;;21.77;10.10;;;13.60;99.90;;;;;;5035993;28;20183;-59
2024/01/29 12:37:26;;;;;;;13.70;7.27;;;13.60;99.90;;;;;;5035583;28;20180;-58
2024/01/29 12:39:53;;;;;;;16.87;9.60;;;13.50;99.90;;;;;;5041602;28;20635;-59
2024/01/29 12:42:20;;;;;;;17.10;7.53;;;13.10;99.90;;;;;;5041571;28;20615;-60
2024/01/29 12:44:47;;;;;;;12.83;6.83;;;13.00;99.90;;;;;;5049826;28;20274;-59
2024/01/29 12:47:14;;;;;;;15.80;6.63;;;12.80;99.90;;;;;;5033859;28;20197;-60
2024/01/29 12:49:39;;;;;;;16.20;8.23;;;12.80;99.90;;;;;;5041057;28;20719;-61
2024/01/29 12:52:07;;;;;;;15.97;8.43;;;12.70;99.90;;;;;;5043857;28;20187;-60
2024/01/29 12:54:33;;;;;;;15.00;7.93;;;12.70;99.90;;;;;;5026145;28;20596;-60
2024/01/29 12:56:59;;;;;;;18.53;8.27;;;12.50;99.90;;;;;;5050166;28;20183;-60
2024/01/29 12:59:25;;;;;;;17.47;8.10;;;12.60;99.90;;;;;;5019661;28;20463;-58
2024/01/29 13:01:53;;;;;;;16.47;7.67;;;12.20;99.90;;;;;;5021531;28;20249;-61
2024/01/29 13:04:19;;;;;;;13.20;7.33;;;12.20;99.90;;;;;;5028877;28;20206;-60
2024/01/29 13:06:45;;;;;;;14.50;7.60;;;12.30;99.90;;;;;;5045963;28;20191;-61
2024/01/29 13:09:11;;;;;;;15.13;8.43;;;12.40;99.90;;;;;;5021463;28;20206;-61
2024/01/29 13:11:36;;;;;;;14.20;8.10;;;12.60;99.90;;;;;;5033254;28;20502;-61
2024/01/29 13:14:02;;;;;;;24.90;11.63;;;12.70;99.90;;;;;;5038673;28;20245;-60
2024/01/29 13:16:28;;;;;;;18.73;8.53;;;12.80;99.90;;;;;;5029339;28;20182;-59
2024/01/29 13:18:53;;;;;;;17.83;9.30;;;12.80;99.90;;;;;;5033910;28;20790;-61
2024/01/29 13:21:21;;;;;;;12.47;7.70;;;12.90;99.90;;;;;;5033612;28;20190;-61
2024/01/29 13:23:47;;;;;;;14.70;7.83;;;13.00;99.90;;;;;;5050147;28;20179;-60
2024/01/29 13:26:15;;;;;;;15.23;7.30;;;12.90;99.90;;;;;;5043916;28;20184;-60
2024/01/29 13:28:41;;;;;;;15.70;8.67;;;12.90;99.90;;;;;;5030027;28;20575;-61
2024/01/29 13:31:07;;;;;;;15.17;8.27;;;12.80;99.90;;;;;;5030278;28;20187;-58
2024/01/29 13:33:33;;;;;;;14.23;7.93;;;12.80;99.90;;;;;;5046608;28;20190;-61
2024/01/29 13:36:00;;;;;;;15.33;7.70;;;12.80;99.90;;;;;;5041200;28;20535;-61
2024/01/29 13:38:26;;;;;;;16.37;7.70;;;12.70;99.90;;;;;;5046148;28;20195;-61